Time;durP1;ratioP1;P1;durP2;ratioP2;P2;SDS_P1;SDS_P2;PMS_P1;PMS_P2;Temp;Humidity;BMP_temperature;BMP_pressure;BME280_temperature;BME280_humidity;BME280_pressure;Samples;Min_cycle;Max_cycle;Signal;HPM_P1;HPM_P2
2023/08/15 00:00:10;;;;;;;4.22;3.30;;;;;;;26.11;53.78;99542.97;4975714;28;20086;-81
2023/08/15 00:02:37;;;;;;;4.40;3.25;;;;;;;26.09;54.47;99536.94;4975378;28;20054;-82
2023/08/15 00:05:04;;;;;;;6.68;3.30;;;;;;;26.06;54.55;99543.56;4975576;28;20094;-81
2023/08/15 00:07:30;;;;;;;6.95;3.92;;;;;;;26.04;54.37;99542.09;4975117;28;20142;-81
2023/08/15 00:09:57;;;;;;;7.03;4.15;;;;;;;26.01;54.47;99538.75;4975341;28;20062;-81
2023/08/15 00:12:23;;;;;;;4.55;3.70;;;;;;;25.99;54.60;99537.28;4975239;28;20126;-81
2023/08/15 00:14:50;;;;;;;5.32;3.45;;;;;;;25.96;54.53;99532.25;4975334;28;20067;-82
2023/08/15 00:17:16;;;;;;;7.38;3.55;;;;;;;25.94;54.72;99534.34;4975191;28;20055;-81
2023/08/15 00:19:43;;;;;;;5.68;3.53;;;;;;;25.90;54.67;99536.56;4975051;28;20423;-81
2023/08/15 00:22:09;;;;;;;7.13;3.75;;;;;;;25.87;54.78;99543.19;4974878;28;20074;-81
2023/08/15 00:24:36;;;;;;;8.73;3.50;;;;;;;25.85;55.14;99547.94;4974656;28;20053;-81
2023/08/15 00:27:03;;;;;;;5.80;3.25;;;;;;;25.81;54.96;99543.97;4974580;28;20483;-81
2023/08/15 00:29:29;;;;;;;7.25;3.70;;;;;;;25.79;55.16;99543.31;4974737;28;20664;-80
2023/08/15 00:31:56;;;;;;;5.38;3.15;;;;;;;25.75;55.25;99545.56;4975037;28;20066;-81
2023/08/15 00:34:22;;;;;;;5.60;3.60;;;;;;;25.72;55.14;99539.75;4974956;28;20079;-80
2023/08/15 00:36:49;;;;;;;4.78;3.47;;;;;;;25.67;55.42;99536.78;4974858;28;20459;-81
2023/08/15 00:39:15;;;;;;;5.32;3.50;;;;;;;25.65;55.60;99530.75;4974331;28;20050;-81
2023/08/15 00:41:42;;;;;;;4.47;3.55;;;;;;;25.61;55.67;99533.81;4974945;28;20153;-81
2023/08/15 00:44:08;;;;;;;5.10;3.22;;;;;;;25.58;55.56;99542.31;4957058;28;20058;-81
2023/08/15 00:46:37;;;;;;;5.78;3.80;;;;;;;25.56;56.27;99536.25;4974769;28;20061;-81
2023/08/15 00:49:07;;;;;;;5.22;3.70;;;;;;;25.53;56.52;99535.78;4974316;28;20072;-81
2023/08/15 00:51:34;;;;;;;7.53;3.90;;;;;;;25.52;56.21;99529.53;4974641;28;20480;-81
2023/08/15 00:54:01;;;;;;;7.82;3.75;;;;;;;25.50;55.87;99529.75;4974479;28;20055;-80
2023/08/15 00:56:27;;;;;;;5.05;3.80;;;;;;;25.47;56.15;99518.53;4973264;28;20055;-81
2023/08/15 00:58:54;;;;;;;6.13;4.00;;;;;;;25.44;56.16;99518.88;4973869;28;20474;-81
2023/08/15 01:01:21;;;;;;;7.72;3.70;;;;;;;25.41;56.11;99517.41;4974531;28;20090;-80
2023/08/15 01:03:49;;;;;;;7.70;4.05;;;;;;;25.37;56.17;99510.75;4974307;28;20415;-82
2023/08/15 01:06:15;;;;;;;6.28;3.55;;;;;;;25.34;56.25;99503.06;4974331;28;20620;-80
2023/08/15 01:08:42;;;;;;;4.93;3.97;;;;;;;25.30;56.54;99507.97;4974251;28;20130;-80
2023/08/15 01:11:09;;;;;;;4.78;3.40;;;;;;;25.26;56.59;99506.69;4974148;28;20569;-81
2023/08/15 01:13:59;;;;;;;5.22;3.70;;;;;;;25.17;57.16;99507.84;4957158;28;20051;-81
2023/08/15 01:16:31;;;;;;;5.65;4.43;;;;;;;25.16;57.18;99509.72;4974293;28;20129;-82
2023/08/15 01:19:05;;;;;;;5.38;3.90;;;;;;;25.10;57.48;99513.13;4974332;28;20051;-80
2023/08/15 01:21:38;;;;;;;7.78;4.22;;;;;;;25.07;57.24;99494.66;4973817;28;20055;-81
2023/08/15 01:24:05;;;;;;;9.13;4.05;;;;;;;25.03;57.08;99506.84;4956798;28;20134;-80
2023/08/15 01:26:32;;;;;;;4.63;3.67;;;;;;;24.98;57.07;99500.16;4974010;28;20051;-81
2023/08/15 01:28:58;;;;;;;10.88;4.65;;;;;;;24.94;57.70;99506.97;4973846;28;20094;-81
2023/08/15 01:31:50;;;;;;;6.45;3.80;;;;;;;24.88;58.33;99506.84;4973599;28;20063;-80
2023/08/15 01:34:23;;;;;;;7.50;3.72;;;;;;;24.86;57.91;99512.44;4974025;28;20074;-81
2023/08/15 01:36:57;;;;;;;6.97;4.03;;;;;;;24.81;58.49;99504.91;4973981;28;20507;-81
2023/08/15 01:39:29;;;;;;;8.05;4.38;;;;;;;24.75;58.64;99497.59;4973761;28;20051;-80
2023/08/15 01:42:01;;;;;;;6.72;4.63;;;;;;;24.72;58.33;99496.09;4973729;28;20109;-81
2023/08/15 01:44:30;;;;;;;9.77;3.85;;;;;;;24.70;58.07;99490.06;5051093;23;20129;-76
2023/08/15 01:46:57;;;;;;;8.02;3.75;;;;;;;24.68;58.22;99500.19;4973257;28;20109;-76
2023/08/15 01:49:24;;;;;;;5.68;4.50;;;;;;;24.66;58.34;99487.91;4973584;28;20050;-76
2023/08/15 01:51:51;;;;;;;6.60;4.72;;;;;;;24.62;58.37;99494.72;4956289;28;20051;-76
2023/08/15 01:54:17;;;;;;;6.43;4.45;;;;;;;24.59;58.53;99499.44;4956296;28;20554;-76
2023/08/15 01:56:44;;;;;;;6.10;4.40;;;;;;;24.57;58.88;99500.66;4973076;28;20135;-76
2023/08/15 01:59:10;;;;;;;6.82;4.30;;;;;;;24.54;58.54;99492.94;4955633;28;20101;-76
2023/08/15 02:01:37;;;;;;;5.65;4.47;;;;;;;24.51;59.01;99498.72;4973414;28;20050;-77
2023/08/15 02:04:04;;;;;;;6.10;4.40;;;;;;;24.48;59.22;99497.19;4973171;28;20050;-76
2023/08/15 02:06:30;;;;;;;5.97;4.20;;;;;;;24.44;59.06;99490.53;4972880;28;20602;-77
2023/08/15 02:08:57;;;;;;;5.07;4.28;;;;;;;24.44;59.02;99493.22;4973357;28;20558;-76
2023/08/15 02:11:23;;;;;;;8.65;4.97;;;;;;;24.40;59.26;99487.38;4973789;28;20090;-76
2023/08/15 02:13:50;;;;;;;5.55;4.50;;;;;;;24.39;59.48;99492.94;4973105;28;20051;-76
2023/08/15 02:16:18;;;;;;;6.45;4.60;;;;;;;24.36;59.79;99487.94;4973426;28;20061;-76
2023/08/15 02:18:44;;;;;;;5.68;4.50;;;;;;;24.33;59.57;99484.59;4973034;28;20058;-76
2023/08/15 02:21:11;;;;;;;6.75;4.65;;;;;;;24.32;59.83;99488.31;4973172;28;20046;-73
2023/08/15 02:23:37;;;;;;;6.80;4.45;;;;;;;24.30;60.05;99490.31;4973029;28;20058;-74
2023/08/15 02:26:04;;;;;;;6.78;4.20;;;;;;;24.29;59.88;99485.97;4972781;28;20419;-74
2023/08/15 02:28:33;;;;;;;10.05;5.03;;;;;;;24.27;59.97;99489.88;4955545;28;20050;-74
2023/08/15 02:31:00;;;;;;;7.28;4.55;;;;;;;24.25;60.00;99490.06;4972965;28;20055;-74
2023/08/15 02:33:26;;;;;;;6.35;4.70;;;;;;;24.22;60.11;99489.59;4955821;28;20141;-73
2023/08/15 02:35:53;;;;;;;5.68;4.40;;;;;;;24.20;60.16;99496.00;4972702;28;20137;-75
2023/08/15 02:38:19;;;;;;;5.28;4.35;;;;;;;24.18;60.03;99489.13;4972452;28;20459;-73
2023/08/15 02:40:47;;;;;;;6.35;4.82;;;;;;;24.16;60.28;99493.84;4972903;28;20097;-74
2023/08/15 02:43:14;;;;;;;7.28;4.95;;;;;;;24.14;60.26;99490.53;4972393;28;20102;-75
2023/08/15 02:45:40;;;;;;;8.25;4.82;;;;;;;24.13;60.64;99488.81;4972691;28;20101;-74
2023/08/15 02:48:07;;;;;;;7.78;4.93;;;;;;;24.12;60.54;99492.53;4972316;28;20546;-73
2023/08/15 02:50:33;;;;;;;8.43;5.10;;;;;;;24.10;60.97;99497.25;4972548;28;20050;-74
2023/08/15 02:53:00;;;;;;;6.20;5.13;;;;;;;24.08;60.86;99498.25;4972666;28;20574;-74
2023/08/15 02:55:26;;;;;;;6.82;4.97;;;;;;;24.08;61.28;99497.44;4972378;28;20047;-74
2023/08/15 02:57:53;;;;;;;7.07;5.05;;;;;;;24.07;61.27;99496.59;4972251;28;20047;-73
2023/08/15 03:00:20;;;;;;;7.40;5.25;;;;;;;24.07;60.94;99495.75;4972527;28;20419;-74
2023/08/15 03:02:46;;;;;;;7.00;5.40;;;;;;;24.07;61.40;99501.13;4972633;28;20141;-73
2023/08/15 03:05:13;;;;;;;8.57;4.95;;;;;;;24.06;61.52;99500.28;4972229;28;20487;-73
2023/08/15 03:07:39;;;;;;;8.52;5.10;;;;;;;24.06;61.33;99508.38;4972233;28;20055;-73
2023/08/15 03:10:06;;;;;;;6.43;5.32;;;;;;;24.05;61.44;99508.53;4972173;28;20069;-74
2023/08/15 03:12:32;;;;;;;7.60;5.22;;;;;;;24.06;61.71;99505.66;4971899;28;20513;-74
2023/08/15 03:14:59;;;;;;;8.55;5.55;;;;;;;24.05;61.30;99504.00;4972122;28;20051;-73
2023/08/15 03:17:26;;;;;;;8.15;5.50;;;;;;;24.03;61.79;99497.97;4954820;28;20081;-74
2023/08/15 03:19:54;;;;;;;6.53;5.00;;;;;;;24.03;61.68;99500.66;4971602;28;20051;-74
2023/08/15 03:22:21;;;;;;;7.07;4.90;;;;;;;24.03;61.67;99500.66;4972382;28;20055;-74
2023/08/15 03:24:47;;;;;;;9.60;5.35;;;;;;;24.04;62.06;99498.81;4972210;28;20097;-74
2023/08/15 03:27:14;;;;;;;7.38;5.18;;;;;;;24.05;62.22;99497.78;4954912;28;20047;-74
2023/08/15 03:29:40;;;;;;;7.90;5.22;;;;;;;24.05;62.04;99492.41;4971637;28;20047;-74
2023/08/15 03:32:07;;;;;;;8.82;5.40;;;;;;;24.06;61.84;99494.06;4971976;28;20495;-74
2023/08/15 03:34:33;;;;;;;5.80;4.88;;;;;;;24.06;62.14;99491.38;4972271;28;20479;-73
2023/08/15 03:37:00;;;;;;;7.53;5.07;;;;;;;24.07;61.85;99485.00;4972140;28;20081;-74
2023/08/15 03:39:27;;;;;;;6.88;4.90;;;;;;;24.07;62.27;99480.44;4972201;28;20141;-74
2023/08/15 03:41:53;;;;;;;7.90;5.05;;;;;;;24.08;62.15;99482.13;4971816;28;20051;-74
2023/08/15 03:44:20;;;;;;;6.60;4.88;;;;;;;24.11;62.07;99472.06;4971796;28;20054;-73
2023/08/15 03:46:47;;;;;;;8.63;5.13;;;;;;;24.13;62.38;99480.75;4971900;28;20672;-74
2023/08/15 03:49:14;;;;;;;6.18;4.97;;;;;;;24.13;62.18;99475.38;4972047;28;20062;-74
2023/08/15 03:51:40;;;;;;;5.78;5.03;;;;;;;24.14;62.31;99477.06;4971797;28;20050;-74
2023/08/15 03:54:13;;;;;;;6.57;5.35;;;;;;;24.16;62.18;99475.03;4972076;28;20051;-75
2023/08/15 03:56:40;;;;;;;8.35;5.38;;;;;;;24.17;62.32;99465.94;4971850;28;20558;-75
2023/08/15 03:59:07;;;;;;;7.35;5.45;;;;;;;24.17;62.35;99474.84;4971473;28;20050;-74
2023/08/15 04:01:34;;;;;;;6.57;5.03;;;;;;;24.19;62.46;99466.59;4971605;28;20487;-73
2023/08/15 04:04:01;;;;;;;6.78;5.25;;;;;;;24.20;62.48;99469.09;4971596;28;20497;-74
2023/08/15 04:06:27;;;;;;;7.70;5.13;;;;;;;24.22;62.22;99460.81;4954683;28;20551;-74
2023/08/15 04:08:54;;;;;;;8.65;5.13;;;;;;;24.24;62.65;99469.56;4971590;28;20046;-74
2023/08/15 04:11:20;;;;;;;8.98;5.40;;;;;;;24.24;62.22;99474.94;4971802;28;20050;-73
2023/08/15 04:13:47;;;;;;;7.13;5.20;;;;;;;24.27;62.60;99479.13;4971638;28;20055;-73
2023/08/15 04:16:14;;;;;;;7.55;5.43;;;;;;;24.28;62.64;99476.25;4970612;28;20150;-74
2023/08/15 04:18:41;;;;;;;8.07;4.85;;;;;;;24.29;62.54;99472.53;4970704;28;20050;-73
2023/08/15 04:21:09;;;;;;;6.05;4.60;;;;;;;24.30;62.21;99468.00;4971124;28;20051;-74
2023/08/15 04:23:36;;;;;;;8.43;5.13;;;;;;;24.33;62.13;99465.75;4971343;28;20061;-74
2023/08/15 04:26:02;;;;;;;9.05;4.93;;;;;;;24.35;62.16;99462.88;4971396;28;20042;-74
2023/08/15 04:28:29;;;;;;;11.38;5.65;;;;;;;24.36;62.22;99464.56;4970953;28;20078;-75
2023/08/15 04:30:55;;;;;;;7.03;4.78;;;;;;;24.39;62.49;99476.78;4955940;28;20054;-74
2023/08/15 04:33:22;;;;;;;6.80;4.80;;;;;;;24.41;62.13;99480.16;4957359;28;20106;-73
2023/08/15 04:35:48;;;;;;;8.45;4.65;;;;;;;24.41;62.51;99477.47;4957504;28;20456;-73
2023/08/15 04:38:15;;;;;;;8.38;5.10;;;;;;;24.43;62.50;99478.09;4974530;28;20050;-74
2023/08/15 04:40:43;;;;;;;6.85;5.07;;;;;;;24.45;62.61;99492.22;4974782;28;20054;-74
2023/08/15 04:43:10;;;;;;;5.32;4.63;;;;;;;24.45;62.45;99487.66;4974558;28;20144;-74
2023/08/15 04:45:43;;;;;;;5.88;4.95;;;;;;;24.47;62.33;99503.59;4957750;28;20046;-74
2023/08/15 04:48:12;;;;;;;8.48;4.85;;;;;;;24.48;62.00;99512.53;4974726;28;20491;-73
2023/08/15 04:50:39;;;;;;;6.13;4.80;;;;;;;24.46;62.31;99527.00;4974281;28;20046;-74
2023/08/15 04:53:06;;;;;;;7.28;4.95;;;;;;;24.46;62.50;99536.91;4974916;28;20063;-74
2023/08/15 04:55:34;;;;;;;7.03;5.05;;;;;;;24.46;62.54;99534.22;4974656;28;20055;-74
2023/08/15 04:58:01;;;;;;;5.15;4.65;;;;;;;24.46;62.53;99536.91;4974683;28;20061;-74
2023/08/15 05:00:28;;;;;;;7.00;4.85;;;;;;;24.46;62.53;99542.31;4974632;28;20043;-74
2023/08/15 05:02:57;;;;;;;8.93;5.18;;;;;;;24.45;62.38;99557.59;4974680;28;20518;-74
2023/08/15 05:05:23;;;;;;;6.78;5.13;;;;;;;24.46;62.50;99572.75;4957495;28;20051;-74
2023/08/15 05:07:50;;;;;;;6.75;5.57;;;;;;;24.45;62.63;99571.03;4974169;28;20069;-74
2023/08/15 05:10:17;;;;;;;5.88;4.80;;;;;;;24.45;62.28;99583.69;4974135;28;20426;-74
2023/08/15 05:12:43;;;;;;;8.48;5.60;;;;;;;24.43;62.75;99585.69;4974674;28;20051;-74
2023/08/15 05:15:10;;;;;;;7.03;4.75;;;;;;;24.43;62.72;99593.78;4974521;28;20055;-73
2023/08/15 05:17:36;;;;;;;6.55;5.18;;;;;;;24.41;63.08;99595.81;4957125;28;20109;-73
2023/08/15 05:20:04;;;;;;;8.15;4.95;;;;;;;24.39;63.02;99585.25;4974342;28;20412;-74
2023/08/15 05:22:31;;;;;;;6.03;5.18;;;;;;;24.39;63.37;99587.09;4973936;28;20145;-73
2023/08/15 05:24:58;;;;;;;8.88;5.45;;;;;;;24.37;63.06;99573.81;4974404;28;20093;-75
2023/08/15 05:27:25;;;;;;;6.47;4.90;;;;;;;24.33;63.39;99573.34;4974047;28;20047;-74
2023/08/15 05:29:51;;;;;;;10.68;5.40;;;;;;;24.30;63.11;99560.25;4973906;28;20134;-74
2023/08/15 05:32:18;;;;;;;9.38;5.40;;;;;;;24.28;63.34;99556.94;4973847;28;20133;-74
2023/08/15 05:34:44;;;;;;;8.50;5.28;;;;;;;24.24;63.83;99555.63;4973982;28;20492;-74
2023/08/15 05:37:11;;;;;;;5.90;5.30;;;;;;;24.21;63.66;99564.03;4973908;28;20050;-74
2023/08/15 05:39:37;;;;;;;8.25;5.53;;;;;;;24.17;63.85;99574.34;4974054;28;20046;-73
2023/08/15 05:42:04;;;;;;;7.45;5.68;;;;;;;24.16;64.19;99574.53;4973454;28;20153;-74
2023/08/15 05:44:31;;;;;;;5.45;4.93;;;;;;;24.12;64.16;99582.13;4973724;28;20141;-74
2023/08/15 05:46:58;;;;;;;7.22;5.53;;;;;;;24.10;64.19;99580.59;4973697;28;20097;-74
2023/08/15 05:49:24;;;;;;;6.75;5.18;;;;;;;24.06;64.49;99578.25;4973656;28;20058;-74
2023/08/15 05:51:52;;;;;;;6.70;5.25;;;;;;;24.05;64.89;99592.72;4973292;28;20483;-73
2023/08/15 05:54:19;;;;;;;5.53;5.03;;;;;;;24.03;64.63;99605.50;4973439;28;20051;-73
2023/08/15 05:56:46;;;;;;;5.90;4.60;;;;;;;24.02;64.55;99598.47;4973507;28;20042;-74
2023/08/15 05:59:12;;;;;;;5.80;5.18;;;;;;;24.03;64.47;99599.31;4973710;28;20051;-74
2023/08/15 06:01:39;;;;;;;6.13;5.38;;;;;;;24.02;65.12;99617.28;4973526;28;20101;-73
2023/08/15 06:04:06;;;;;;;8.43;6.13;;;;;;;24.03;64.88;99618.13;4954196;28;20575;-74
2023/08/15 06:06:33;;;;;;;8.10;6.22;;;;;;;24.03;65.25;99608.19;4954238;29;20082;-73
2023/08/15 06:08:59;;;;;;;9.65;6.03;;;;;;;24.02;65.44;99606.53;4954115;29;20098;-74
2023/08/15 06:11:26;;;;;;;7.63;5.57;;;;;;;24.02;65.16;99601.16;4954211;29;20154;-75
2023/08/15 06:13:53;;;;;;;6.75;5.70;;;;;;;24.03;65.58;99599.31;4951555;28;20463;-74
2023/08/15 06:16:19;;;;;;;6.75;5.50;;;;;;;24.03;65.47;99608.19;4973422;28;20047;-73
2023/08/15 06:18:46;;;;;;;7.70;6.13;;;;;;;24.04;65.79;99606.34;4972922;28;20059;-73
2023/08/15 06:21:13;;;;;;;8.13;6.07;;;;;;;24.04;65.78;99601.78;4973020;28;20055;-74
2023/08/15 06:23:39;;;;;;;7.32;5.45;;;;;;;24.06;65.80;99598.94;4972995;28;20047;-75
2023/08/15 06:26:06;;;;;;;9.35;5.93;;;;;;;24.06;66.06;99602.47;4955747;28;20078;-73
2023/08/15 06:28:33;;;;;;;6.50;5.30;;;;;;;24.08;66.33;99597.72;4972842;28;20055;-74
2023/08/15 06:30:59;;;;;;;7.93;6.25;;;;;;;24.11;66.28;99598.44;4972861;28;20554;-74
2023/08/15 06:33:26;;;;;;;7.43;5.85;;;;;;;24.13;66.66;99602.59;4972533;28;20499;-74
2023/08/15 06:35:52;;;;;;;7.15;5.93;;;;;;;24.16;66.73;99612.16;4972997;28;20062;-74
2023/08/15 06:38:19;;;;;;;8.90;6.15;;;;;;;24.18;66.81;99605.59;4972535;28;20547;-73
2023/08/15 06:40:45;;;;;;;8.45;6.38;;;;;;;24.21;66.52;99604.38;4955740;28;20062;-74
2023/08/15 06:43:12;;;;;;;10.20;5.78;;;;;;;24.23;66.91;99607.75;4972250;28;20145;-75
2023/08/15 06:45:38;;;;;;;7.60;5.25;;;;;;;24.27;67.13;99611.75;4972581;28;20105;-74
2023/08/15 06:48:05;;;;;;;9.25;5.88;;;;;;;24.30;67.00;99607.84;4970627;28;20086;-73
2023/08/15 06:50:32;;;;;;;11.55;6.60;;;;;;;24.32;66.97;99606.66;4954028;28;20047;-75
2023/08/15 06:52:59;;;;;;;8.65;5.70;;;;;;;24.36;66.88;99612.50;4970619;28;20102;-74
2023/08/15 06:55:26;;;;;;;7.70;5.65;;;;;;;24.38;66.67;99615.00;4970341;28;20066;-74
2023/08/15 06:57:56;;;;;;;8.90;6.38;;;;;;;24.39;67.11;99624.75;4970651;28;20105;-74
2023/08/15 07:00:23;;;;;;;9.40;6.45;;;;;;;24.41;66.81;99620.03;4970427;28;20059;-75
2023/08/15 07:02:50;;;;;;;7.30;6.35;;;;;;;24.41;66.30;99623.53;4972099;28;20157;-73
2023/08/15 07:05:17;;;;;;;9.63;7.45;;;;;;;24.44;66.70;99635.78;4972506;28;20055;-74
2023/08/15 07:07:43;;;;;;;7.05;6.35;;;;;;;24.42;66.44;99643.22;4972295;28;20129;-75
2023/08/15 07:10:10;;;;;;;9.23;7.35;;;;;;;24.41;66.81;99642.38;4972285;28;20050;-73
2023/08/15 07:12:37;;;;;;;9.63;7.75;;;;;;;24.43;67.02;99642.19;4972339;28;20403;-73
2023/08/15 07:15:04;;;;;;;11.25;7.38;;;;;;;24.44;66.87;99642.03;4972232;28;20058;-73
2023/08/15 07:17:31;;;;;;;9.10;6.35;;;;;;;24.45;67.26;99637.47;4972179;28;20090;-74
2023/08/15 07:19:58;;;;;;;10.27;6.80;;;;;;;24.49;67.56;99648.72;4972153;28;20057;-73
2023/08/15 07:22:24;;;;;;;9.05;7.05;;;;;;;24.51;67.43;99642.13;4971926;28;20739;-74
2023/08/15 07:24:51;;;;;;;9.23;7.90;;;;;;;24.56;67.96;99653.16;4971862;28;20160;-73
2023/08/15 07:27:18;;;;;;;10.15;7.65;;;;;;;24.63;67.78;99644.38;4972073;28;20054;-73
2023/08/15 07:29:44;;;;;;;9.85;8.68;;;;;;;24.69;67.55;99643.66;4954203;28;20058;-74
2023/08/15 07:32:11;;;;;;;9.02;7.10;;;;;;;24.73;67.48;99643.09;4972138;28;20055;-74
2023/08/15 07:34:39;;;;;;;12.43;8.02;;;;;;;24.79;67.08;99638.00;4972229;28;20635;-74
2023/08/15 07:37:06;;;;;;;11.48;8.57;;;;;;;24.84;67.34;99638.31;4971993;28;20105;-74
2023/08/15 07:39:32;;;;;;;10.90;7.75;;;;;;;24.90;67.04;99650.22;4954342;28;20558;-73
2023/08/15 07:41:59;;;;;;;12.13;6.30;;;;;;;24.95;67.53;99653.16;4971942;28;20051;-74
2023/08/15 07:44:25;;;;;;;10.35;8.27;;;;;;;25.02;67.66;99654.13;4971983;28;20506;-75
2023/08/15 07:46:52;;;;;;;11.40;8.13;;;;;;;25.10;67.17;99656.72;4972072;28;20051;-74
2023/08/15 07:49:20;;;;;;;17.25;7.20;;;;;;;25.18;66.92;99653.09;4971529;28;20051;-73
2023/08/15 07:51:47;;;;;;;11.77;7.43;;;;;;;25.26;66.17;99660.22;4972077;28;20055;-74
2023/08/15 07:54:14;;;;;;;11.02;7.22;;;;;;;25.31;65.43;99673.97;4972124;28;20137;-74
2023/08/15 07:56:40;;;;;;;12.05;6.85;;;;;;;25.35;64.98;99671.75;4971750;28;20086;-73
2023/08/15 07:59:07;;;;;;;12.15;6.75;;;;;;;25.38;64.88;99671.38;4971803;28;20090;-74
2023/08/15 08:01:33;;;;;;;8.70;6.57;;;;;;;25.41;64.61;99676.38;4971409;28;20198;-74
2023/08/15 08:04:00;;;;;;;8.95;7.22;;;;;;;25.45;63.97;99685.78;4971816;28;20137;-74
2023/08/15 08:06:27;;;;;;;8.95;6.38;;;;;;;25.50;64.04;99687.91;4974769;28;20051;-74
2023/08/15 08:09:06;;;;;;;8.07;6.53;;;;;;;25.51;63.95;99689.56;4975360;28;20043;-73
2023/08/15 08:11:32;;;;;;;7.35;5.65;;;;;;;25.55;63.92;99687.34;4975474;28;20146;-74
2023/08/15 08:13:59;;;;;;;8.65;5.90;;;;;;;25.58;63.34;99687.84;4975645;28;20499;-74
2023/08/15 08:16:26;;;;;;;12.95;6.82;;;;;;;25.62;63.66;99697.22;4975545;28;20071;-74
2023/08/15 08:18:53;;;;;;;9.45;6.63;;;;;;;25.67;63.24;99709.31;4975243;28;20065;-74
2023/08/15 08:21:20;;;;;;;8.45;5.68;;;;;;;25.72;62.99;99723.88;4975172;28;20689;-73
2023/08/15 08:23:47;;;;;;;8.35;5.40;;;;;;;25.77;62.17;99726.00;4975215;28;20047;-73
2023/08/15 08:26:13;;;;;;;7.53;4.90;;;;;;;25.80;61.54;99727.50;4975576;28;20054;-74
2023/08/15 08:28:40;;;;;;;9.93;5.32;;;;;;;25.80;60.82;99727.50;4974988;28;20055;-76
2023/08/15 08:31:06;;;;;;;8.52;4.72;;;;;;;25.78;60.58;99729.56;4975189;28;20043;-76
2023/08/15 08:33:33;;;;;;;10.35;5.80;;;;;;;25.75;60.52;99728.88;4975106;28;20418;-77
2023/08/15 08:36:06;;;;;;;8.32;5.40;;;;;;;25.72;60.71;99731.13;4958192;28;20066;-77
2023/08/15 08:38:33;;;;;;;11.30;5.30;;;;;;;25.71;61.02;99735.69;4974881;28;20422;-77
2023/08/15 08:41:02;;;;;;;7.22;5.28;;;;;;;25.71;61.18;99737.56;4975166;28;20051;-77
2023/08/15 08:43:33;;;;;;;13.00;5.37;;;;;;;25.77;60.63;99742.19;4946819;28;20125;-77
2023/08/15 08:46:03;;;;;;;8.18;3.50;;;;;;;25.81;60.24;99751.56;4957440;28;20054;-77
2023/08/15 08:48:31;;;;;;;9.30;3.80;;;;;;;25.85;59.80;99750.16;4974497;28;20125;-77
2023/08/15 08:50:58;;;;;;;4.53;3.47;;;;;;;25.91;59.10;99747.75;4974758;28;20047;-76
2023/08/15 08:53:24;;;;;;;5.93;3.17;;;;;;;25.96;58.78;99748.00;4957589;28;20137;-77
2023/08/15 08:55:52;;;;;;;6.13;4.05;;;;;;;26.00;58.72;99746.59;4974431;28;20055;-76
2023/08/15 08:58:22;;;;;;;7.93;3.63;;;;;;;26.05;59.20;99749.56;4974498;28;20101;-76
2023/08/15 09:00:49;;;;;;;5.50;3.45;;;;;;;26.12;58.68;99750.47;4974825;28;20058;-76
2023/08/15 09:03:18;;;;;;;5.10;3.03;;;;;;;26.20;58.20;99757.59;4974523;28;20058;-76
2023/08/15 09:05:45;;;;;;;3.65;2.28;;;;;;;26.25;57.39;99757.91;4974451;28;20137;-77
2023/08/15 09:08:11;;;;;;;5.20;2.40;;;;;;;26.32;56.14;99757.16;4974396;28;20553;-76
2023/08/15 09:10:38;;;;;;;3.08;1.98;;;;;;;26.34;56.17;99764.03;4974726;28;20051;-76
2023/08/15 09:13:04;;;;;;;4.72;2.10;;;;;;;26.37;54.91;99760.97;4974238;28;20583;-76
2023/08/15 09:15:31;;;;;;;4.22;1.90;;;;;;;26.38;55.28;99772.56;4974504;28;20415;-77
2023/08/15 09:18:04;;;;;;;4.10;1.80;;;;;;;26.36;54.65;99770.09;4972933;28;20380;-77
2023/08/15 09:20:32;;;;;;;3.70;1.63;;;;;;;26.34;54.36;99777.53;4974417;28;20055;-76
2023/08/15 09:23:00;;;;;;;4.63;2.00;;;;;;;26.33;54.67;99775.84;4974267;28;20406;-76
2023/08/15 09:25:27;;;;;;;3.35;1.80;;;;;;;26.35;54.05;99781.06;4957170;28;20066;-77
2023/08/15 09:27:54;;;;;;;4.32;2.22;;;;;;;26.38;54.24;99775.25;4974024;28;20097;-76
2023/08/15 09:30:21;;;;;;;4.75;2.08;;;;;;;26.40;54.11;99771.34;4974143;28;20102;-76
2023/08/15 09:32:48;;;;;;;4.32;1.73;;;;;;;26.45;54.19;99765.38;4974354;28;20054;-76
2023/08/15 09:35:17;;;;;;;3.22;1.90;;;;;;;26.49;54.45;99765.81;4974018;28;20047;-76
2023/08/15 09:37:47;;;;;;;5.72;1.90;;;;;;;26.56;54.47;99766.72;4973878;28;20062;-77
2023/08/15 09:40:22;;;;;;;2.75;1.55;;;;;;;26.62;54.14;99776.78;4974212;28;20046;-76
2023/08/15 09:42:49;;;;;;;4.15;2.17;;;;;;;26.69;54.18;99771.44;4973946;28;20047;-76
2023/08/15 09:45:16;;;;;;;3.70;1.55;;;;;;;26.76;53.86;99775.00;4974236;28;20054;-77
2023/08/15 09:47:44;;;;;;;3.40;1.80;;;;;;;26.81;53.52;99774.44;4973456;28;20491;-76
2023/08/15 09:50:12;;;;;;;3.65;1.90;;;;;;;26.88;54.17;99777.19;4973689;28;20054;-76
2023/08/15 09:52:41;;;;;;;2.67;1.35;;;;;;;26.95;53.61;99775.44;4973852;28;20117;-76
2023/08/15 09:55:13;;;;;;;3.03;1.27;;;;;;;27.02;53.49;99775.50;4973743;28;20047;-76
2023/08/15 09:57:41;;;;;;;3.65;1.73;;;;;;;27.13;53.42;99777.63;4973300;28;20046;-76
2023/08/15 10:00:16;;;;;;;4.65;1.77;;;;;;;27.23;52.25;99779.16;4973860;28;20081;-76
2023/08/15 10:03:03;;;;;;;4.38;1.75;;;;;;;27.29;52.79;99781.91;4973697;28;20054;-76
2023/08/15 10:05:32;;;;;;;5.18;1.88;;;;;;;27.42;52.59;99778.47;4973145;28;20046;-77
2023/08/15 10:08:00;;;;;;;4.25;1.77;;;;;;;27.51;52.87;99783.72;4955293;28;20050;-77
2023/08/15 10:10:27;;;;;;;3.17;1.90;;;;;;;27.59;52.68;99786.25;4973591;28;20101;-76
2023/08/15 10:12:55;;;;;;;4.32;1.52;;;;;;;27.64;52.89;99791.94;4956297;28;20054;-77
2023/08/15 10:15:23;;;;;;;3.58;1.65;;;;;;;27.74;52.42;99796.13;4973314;28;20050;-77
2023/08/15 10:17:50;;;;;;;7.28;1.65;;;;;;;27.80;52.41;99801.56;4956270;28;20069;-77
2023/08/15 10:20:20;;;;;;;2.97;1.40;;;;;;;27.89;52.25;99796.00;4956075;28;20051;-76
2023/08/15 10:22:54;;;;;;;2.92;1.50;;;;;;;27.97;50.82;99790.41;4973091;28;20051;-76
2023/08/15 10:25:24;;;;;;;2.03;1.23;;;;;;;28.07;51.43;99798.16;4955919;28;20502;-77
2023/08/15 10:27:52;;;;;;;3.63;1.40;;;;;;;28.16;52.24;99805.06;4972642;28;20062;-77
2023/08/15 10:30:41;;;;;;;3.13;1.13;;;;;;;28.19;51.00;99812.75;4972986;28;20078;-76
2023/08/15 10:33:15;;;;;;;2.15;1.20;;;;;;;28.31;50.48;99806.81;4957037;28;20059;-76
2023/08/15 10:35:54;;;;;;;2.10;1.23;;;;;;;28.36;50.71;99815.13;4973018;28;20101;-76
2023/08/15 10:38:28;;;;;;;2.17;1.10;;;;;;;28.48;50.48;99827.03;4972591;28;20058;-77
2023/08/15 10:41:07;;;;;;;3.95;1.25;;;;;;;28.56;50.11;99827.91;4972823;28;20059;-77
2023/08/15 10:43:35;;;;;;;4.03;1.40;;;;;;;28.67;49.92;99816.44;4972389;28;20516;-77
2023/08/15 10:46:05;;;;;;;1.75;1.10;;;;;;;28.77;49.85;99823.38;4972597;28;20055;-77
2023/08/15 10:48:42;;;;;;;1.27;1.00;;;;;;;28.84;48.07;99826.91;4972573;28;20059;-78
2023/08/15 10:51:28;;;;;;;1.90;1.10;;;;;;;28.91;48.59;99825.06;4972543;28;20058;-75
2023/08/15 10:54:00;;;;;;;2.00;1.35;;;;;;;28.92;48.42;99834.84;4973071;28;20082;-74
2023/08/15 10:56:33;;;;;;;2.90;1.33;;;;;;;28.90;47.98;99834.25;4955503;28;20077;-74
2023/08/15 10:59:06;;;;;;;1.85;1.40;;;;;;;28.88;47.99;99829.00;4955023;28;20353;-74
2023/08/15 11:01:34;;;;;;;2.33;1.40;;;;;;;28.89;48.70;99818.97;4955668;28;20058;-74
2023/08/15 11:04:02;;;;;;;2.33;1.20;;;;;;;29.00;49.87;99826.53;4955245;28;20417;-75
2023/08/15 11:06:30;;;;;;;2.58;1.50;;;;;;;29.30;51.89;99819.84;4972327;28;20137;-74
2023/08/15 11:08:58;;;;;;;2.33;1.00;;;;;;;29.71;50.49;99839.63;4972086;28;20058;-74
2023/08/15 11:11:25;;;;;;;2.72;1.60;;;;;;;30.14;49.07;99830.13;4972396;28;20051;-74
2023/08/15 11:13:53;;;;;;;1.50;1.20;;;;;;;30.48;47.34;99838.09;4971734;28;20058;-74
2023/08/15 11:16:22;;;;;;;1.67;1.10;;;;;;;30.70;46.74;99840.47;4972321;28;20050;-74
2023/08/15 11:18:49;;;;;;;2.55;1.42;;;;;;;30.85;45.63;99842.91;4954978;28;20129;-74
2023/08/15 11:21:17;;;;;;;4.32;1.70;;;;;;;30.96;45.07;99833.22;4955302;28;20055;-74
2023/08/15 11:23:45;;;;;;;2.92;1.42;;;;;;;31.07;44.67;99839.81;4972365;28;20198;-74
2023/08/15 11:26:15;;;;;;;2.03;1.63;;;;;;;31.13;43.96;99843.53;4971786;28;20624;-74
2023/08/15 11:28:42;;;;;;;2.38;1.55;;;;;;;31.09;43.65;99843.13;4970819;28;20061;-74
2023/08/15 11:31:11;;;;;;;2.00;1.20;;;;;;;31.03;44.10;99854.91;4971723;28;20419;-73
2023/08/15 11:33:51;;;;;;;1.98;1.38;;;;;;;31.06;43.79;99849.03;4956115;28;20604;-75